sensor_id;sensor_type;location;lat;lon;timestamp;P1;durP1;ratioP1;P2;durP2;ratioP2
59532;SDS011;45351;53.596;10.000;2022-08-19T00:01:16;9.80;;;7.10;;
59532;SDS011;45351;53.596;10.000;2022-08-19T00:03:43;12.93;;;7.63;;
59532;SDS011;45351;53.596;10.000;2022-08-19T00:06:10;12.10;;;7.50;;
59532;SDS011;45351;53.596;10.000;2022-08-19T00:08:37;12.47;;;7.43;;
59532;SDS011;45351;53.596;10.000;2022-08-19T00:11:04;15.03;;;8.70;;
59532;SDS011;45351;53.596;10.000;2022-08-19T00:13:32;16.83;;;9.77;;
59532;SDS011;45351;53.596;10.000;2022-08-19T00:16:00;27.67;;;10.93;;
59532;SDS011;45351;53.596;10.000;2022-08-19T00:18:29;14.47;;;9.23;;
59532;SDS011;45351;53.596;10.000;2022-08-19T00:20:57;11.17;;;8.20;;
59532;SDS011;45351;53.596;10.000;2022-08-19T00:23:24;15.67;;;9.07;;
59532;SDS011;45351;53.596;10.000;2022-08-19T00:25:51;16.73;;;9.47;;
59532;SDS011;45351;53.596;10.000;2022-08-19T00:28:18;17.90;;;10.67;;
59532;SDS011;45351;53.596;10.000;2022-08-19T00:30:46;17.03;;;10.57;;
59532;SDS011;45351;53.596;10.000;2022-08-19T00:33:13;14.23;;;8.20;;
59532;SDS011;45351;53.596;10.000;2022-08-19T00:35:43;16.87;;;8.10;;
59532;SDS011;45351;53.596;10.000;2022-08-19T00:38:09;16.47;;;10.10;;
59532;SDS011;45351;53.596;10.000;2022-08-19T00:40:36;16.53;;;9.67;;
59532;SDS011;45351;53.596;10.000;2022-08-19T00:43:07;16.50;;;10.30;;
59532;SDS011;45351;53.596;10.000;2022-08-19T00:45:35;17.53;;;10.60;;
59532;SDS011;45351;53.596;10.000;2022-08-19T00:48:02;17.30;;;8.60;;
59532;SDS011;45351;53.596;10.000;2022-08-19T00:50:30;16.83;;;10.00;;
59532;SDS011;45351;53.596;10.000;2022-08-19T00:52:59;18.73;;;11.23;;
59532;SDS011;45351;53.596;10.000;2022-08-19T00:55:29;19.13;;;10.70;;
59532;SDS011;45351;53.596;10.000;2022-08-19T00:58:00;16.37;;;9.47;;
59532;SDS011;45351;53.596;10.000;2022-08-19T01:00:30;12.83;;;8.43;;
59532;SDS011;45351;53.596;10.000;2022-08-19T01:02:57;12.90;;;9.90;;
59532;SDS011;45351;53.596;10.000;2022-08-19T01:05:26;19.70;;;10.00;;
59532;SDS011;45351;53.596;10.000;2022-08-19T01:07:56;13.63;;;8.83;;
59532;SDS011;45351;53.596;10.000;2022-08-19T01:10:28;15.37;;;8.90;;
59532;SDS011;45351;53.596;10.000;2022-08-19T01:12:58;15.40;;;9.87;;
59532;SDS011;45351;53.596;10.000;2022-08-19T01:15:27;15.57;;;8.10;;
59532;SDS011;45351;53.596;10.000;2022-08-19T01:17:57;15.73;;;9.70;;
59532;SDS011;45351;53.596;10.000;2022-08-19T01:20:28;16.47;;;9.67;;
59532;SDS011;45351;53.596;10.000;2022-08-19T01:22:57;20.17;;;9.87;;
59532;SDS011;45351;53.596;10.000;2022-08-19T01:25:26;15.43;;;10.03;;
59532;SDS011;45351;53.596;10.000;2022-08-19T01:27:57;17.30;;;10.00;;
59532;SDS011;45351;53.596;10.000;2022-08-19T01:30:26;11.03;;;6.90;;
59532;SDS011;45351;53.596;10.000;2022-08-19T01:32:55;19.53;;;10.10;;
59532;SDS011;45351;53.596;10.000;2022-08-19T01:35:24;18.10;;;10.70;;
59532;SDS011;45351;53.596;10.000;2022-08-19T01:37:52;12.20;;;9.37;;
59532;SDS011;45351;53.596;10.000;2022-08-19T01:40:25;16.43;;;8.67;;
59532;SDS011;45351;53.596;10.000;2022-08-19T01:42:56;14.87;;;10.00;;
59532;SDS011;45351;53.596;10.000;2022-08-19T01:45:24;14.00;;;9.67;;
59532;SDS011;45351;53.596;10.000;2022-08-19T01:47:53;14.27;;;10.37;;
59532;SDS011;45351;53.596;10.000;2022-08-19T01:50:38;17.43;;;11.40;;
59532;SDS011;45351;53.596;10.000;2022-08-19T01:53:25;17.07;;;11.20;;
59532;SDS011;45351;53.596;10.000;2022-08-19T01:56:14;18.30;;;10.70;;
59532;SDS011;45351;53.596;10.000;2022-08-19T01:59:02;15.30;;;9.60;;
59532;SDS011;45351;53.596;10.000;2022-08-19T02:01:52;17.70;;;10.53;;
59532;SDS011;45351;53.596;10.000;2022-08-19T02:04:18;18.70;;;10.97;;
59532;SDS011;45351;53.596;10.000;2022-08-19T02:06:46;14.07;;;8.80;;
59532;SDS011;45351;53.596;10.000;2022-08-19T02:09:13;15.80;;;9.20;;
59532;SDS011;45351;53.596;10.000;2022-08-19T02:11:42;15.00;;;9.80;;
59532;SDS011;45351;53.596;10.000;2022-08-19T02:14:09;17.70;;;8.90;;
59532;SDS011;45351;53.596;10.000;2022-08-19T02:16:36;13.47;;;8.40;;
59532;SDS011;45351;53.596;10.000;2022-08-19T02:19:05;15.23;;;10.37;;
59532;SDS011;45351;53.596;10.000;2022-08-19T02:21:32;18.33;;;10.13;;
59532;SDS011;45351;53.596;10.000;2022-08-19T02:23:59;16.07;;;10.50;;
59532;SDS011;45351;53.596;10.000;2022-08-19T02:26:26;22.50;;;10.80;;
59532;SDS011;45351;53.596;10.000;2022-08-19T02:28:55;20.03;;;10.23;;
59532;SDS011;45351;53.596;10.000;2022-08-19T02:31:23;20.03;;;10.63;;
59532;SDS011;45351;53.596;10.000;2022-08-19T02:33:52;20.57;;;11.30;;
59532;SDS011;45351;53.596;10.000;2022-08-19T02:36:20;19.60;;;10.80;;
59532;SDS011;45351;53.596;10.000;2022-08-19T02:38:48;18.27;;;11.50;;
59532;SDS011;45351;53.596;10.000;2022-08-19T02:41:15;18.27;;;10.87;;
59532;SDS011;45351;53.596;10.000;2022-08-19T02:43:43;23.90;;;12.20;;
59532;SDS011;45351;53.596;10.000;2022-08-19T02:46:13;22.17;;;11.87;;
59532;SDS011;45351;53.596;10.000;2022-08-19T02:48:43;26.40;;;12.10;;
59532;SDS011;45351;53.596;10.000;2022-08-19T02:51:15;22.57;;;13.00;;
59532;SDS011;45351;53.596;10.000;2022-08-19T02:53:43;26.30;;;12.80;;
59532;SDS011;45351;53.596;10.000;2022-08-19T02:56:10;25.43;;;13.00;;
59532;SDS011;45351;53.596;10.000;2022-08-19T02:58:37;26.30;;;13.13;;
59532;SDS011;45351;53.596;10.000;2022-08-19T03:01:04;21.67;;;12.17;;
59532;SDS011;45351;53.596;10.000;2022-08-19T03:03:33;21.73;;;11.90;;
59532;SDS011;45351;53.596;10.000;2022-08-19T03:06:07;21.93;;;11.60;;
59532;SDS011;45351;53.596;10.000;2022-08-19T03:08:38;21.70;;;11.17;;
59532;SDS011;45351;53.596;10.000;2022-08-19T03:11:06;29.97;;;13.20;;
59532;SDS011;45351;53.596;10.000;2022-08-19T03:13:38;26.77;;;13.83;;
59532;SDS011;45351;53.596;10.000;2022-08-19T03:16:05;20.13;;;10.33;;
59532;SDS011;45351;53.596;10.000;2022-08-19T03:18:33;26.93;;;12.03;;
59532;SDS011;45351;53.596;10.000;2022-08-19T03:21:00;23.00;;;12.67;;
59532;SDS011;45351;53.596;10.000;2022-08-19T03:23:27;29.77;;;13.03;;
59532;SDS011;45351;53.596;10.000;2022-08-19T03:25:54;27.10;;;13.00;;
59532;SDS011;45351;53.596;10.000;2022-08-19T03:28:21;27.27;;;13.07;;
59532;SDS011;45351;53.596;10.000;2022-08-19T03:30:57;25.27;;;11.30;;
59532;SDS011;45351;53.596;10.000;2022-08-19T03:33:27;27.53;;;13.37;;
59532;SDS011;45351;53.596;10.000;2022-08-19T03:36:06;29.03;;;13.97;;
59532;SDS011;45351;53.596;10.000;2022-08-19T03:38:35;21.00;;;11.17;;
59532;SDS011;45351;53.596;10.000;2022-08-19T03:41:03;21.17;;;11.60;;
59532;SDS011;45351;53.596;10.000;2022-08-19T03:43:33;22.40;;;11.73;;
59532;SDS011;45351;53.596;10.000;2022-08-19T03:46:02;22.93;;;11.70;;
59532;SDS011;45351;53.596;10.000;2022-08-19T03:48:31;18.43;;;11.20;;
59532;SDS011;45351;53.596;10.000;2022-08-19T03:50:59;22.67;;;11.93;;
59532;SDS011;45351;53.596;10.000;2022-08-19T03:53:28;27.47;;;12.37;;
59532;SDS011;45351;53.596;10.000;2022-08-19T03:55:56;25.50;;;11.53;;
59532;SDS011;45351;53.596;10.000;2022-08-19T03:58:25;15.43;;;9.37;;
59532;SDS011;45351;53.596;10.000;2022-08-19T04:00:53;28.53;;;12.30;;
59532;SDS011;45351;53.596;10.000;2022-08-19T04:03:20;19.10;;;10.63;;
59532;SDS011;45351;53.596;10.000;2022-08-19T04:05:47;20.40;;;11.30;;
59532;SDS011;45351;53.596;10.000;2022-08-19T04:08:14;25.27;;;10.80;;
59532;SDS011;45351;53.596;10.000;2022-08-19T04:10:47;24.90;;;11.63;;
59532;SDS011;45351;53.596;10.000;2022-08-19T04:13:14;20.60;;;10.07;;
59532;SDS011;45351;53.596;10.000;2022-08-19T04:15:43;20.23;;;9.50;;
59532;SDS011;45351;53.596;10.000;2022-08-19T04:18:12;22.20;;;11.87;;
59532;SDS011;45351;53.596;10.000;2022-08-19T04:20:40;23.50;;;10.93;;
59532;SDS011;45351;53.596;10.000;2022-08-19T04:23:08;28.00;;;10.87;;
59532;SDS011;45351;53.596;10.000;2022-08-19T04:25:36;19.00;;;10.30;;
59532;SDS011;45351;53.596;10.000;2022-08-19T04:28:06;25.53;;;12.70;;
59532;SDS011;45351;53.596;10.000;2022-08-19T04:30:39;19.63;;;10.87;;
59532;SDS011;45351;53.596;10.000;2022-08-19T04:33:07;18.90;;;9.80;;
59532;SDS011;45351;53.596;10.000;2022-08-19T04:35:36;22.50;;;11.17;;
59532;SDS011;45351;53.596;10.000;2022-08-19T04:38:05;21.13;;;11.07;;
59532;SDS011;45351;53.596;10.000;2022-08-19T04:40:32;18.50;;;10.70;;
59532;SDS011;45351;53.596;10.000;2022-08-19T04:43:18;25.93;;;11.80;;
59532;SDS011;45351;53.596;10.000;2022-08-19T04:45:45;25.27;;;11.20;;
59532;SDS011;45351;53.596;10.000;2022-08-19T04:48:12;20.90;;;11.53;;
59532;SDS011;45351;53.596;10.000;2022-08-19T04:50:40;23.70;;;11.30;;
59532;SDS011;45351;53.596;10.000;2022-08-19T04:53:08;22.00;;;13.10;;
59532;SDS011;45351;53.596;10.000;2022-08-19T04:55:38;25.43;;;13.00;;
59532;SDS011;45351;53.596;10.000;2022-08-19T04:58:05;28.07;;;13.57;;
59532;SDS011;45351;53.596;10.000;2022-08-19T05:00:34;24.80;;;13.17;;
59532;SDS011;45351;53.596;10.000;2022-08-19T05:03:03;36.20;;;15.47;;
59532;SDS011;45351;53.596;10.000;2022-08-19T05:05:30;28.80;;;14.97;;
59532;SDS011;45351;53.596;10.000;2022-08-19T05:07:57;35.30;;;14.23;;
59532;SDS011;45351;53.596;10.000;2022-08-19T05:10:24;31.43;;;15.27;;
59532;SDS011;45351;53.596;10.000;2022-08-19T05:12:51;40.73;;;17.37;;
59532;SDS011;45351;53.596;10.000;2022-08-19T05:15:18;38.30;;;16.90;;
59532;SDS011;45351;53.596;10.000;2022-08-19T05:17:46;34.90;;;15.30;;
59532;SDS011;45351;53.596;10.000;2022-08-19T05:20:27;31.90;;;15.87;;
59532;SDS011;45351;53.596;10.000;2022-08-19T05:23:11;36.10;;;17.07;;
59532;SDS011;45351;53.596;10.000;2022-08-19T05:25:40;38.93;;;18.10;;
59532;SDS011;45351;53.596;10.000;2022-08-19T05:28:07;34.70;;;17.47;;
59532;SDS011;45351;53.596;10.000;2022-08-19T05:30:34;31.37;;;15.57;;
59532;SDS011;45351;53.596;10.000;2022-08-19T05:33:03;24.50;;;13.53;;
59532;SDS011;45351;53.596;10.000;2022-08-19T05:35:30;31.67;;;16.13;;
59532;SDS011;45351;53.596;10.000;2022-08-19T05:37:57;33.27;;;18.03;;
59532;SDS011;45351;53.596;10.000;2022-08-19T05:40:24;31.30;;;15.10;;
59532;SDS011;45351;53.596;10.000;2022-08-19T05:42:51;28.10;;;10.93;;
59532;SDS011;45351;53.596;10.000;2022-08-19T05:45:18;33.63;;;14.50;;
59532;SDS011;45351;53.596;10.000;2022-08-19T05:47:45;29.23;;;16.47;;
59532;SDS011;45351;53.596;10.000;2022-08-19T05:50:13;40.30;;;17.63;;
59532;SDS011;45351;53.596;10.000;2022-08-19T05:52:42;36.20;;;16.27;;
59532;SDS011;45351;53.596;10.000;2022-08-19T05:55:10;49.00;;;16.20;;
59532;SDS011;45351;53.596;10.000;2022-08-19T05:57:37;43.40;;;15.90;;
59532;SDS011;45351;53.596;10.000;2022-08-19T06:00:04;35.27;;;15.00;;
59532;SDS011;45351;53.596;10.000;2022-08-19T06:02:37;41.93;;;18.40;;
59532;SDS011;45351;53.596;10.000;2022-08-19T06:05:04;36.03;;;15.90;;
59532;SDS011;45351;53.596;10.000;2022-08-19T06:07:35;35.00;;;17.33;;
59532;SDS011;45351;53.596;10.000;2022-08-19T06:10:03;31.50;;;15.20;;
59532;SDS011;45351;53.596;10.000;2022-08-19T06:12:31;34.63;;;17.80;;
59532;SDS011;45351;53.596;10.000;2022-08-19T06:14:59;32.53;;;17.57;;
59532;SDS011;45351;53.596;10.000;2022-08-19T06:17:27;32.77;;;16.00;;
59532;SDS011;45351;53.596;10.000;2022-08-19T06:19:55;47.63;;;15.80;;
59532;SDS011;45351;53.596;10.000;2022-08-19T06:22:22;32.13;;;16.80;;
59532;SDS011;45351;53.596;10.000;2022-08-19T06:24:50;31.53;;;15.70;;
59532;SDS011;45351;53.596;10.000;2022-08-19T06:27:18;38.27;;;17.57;;
59532;SDS011;45351;53.596;10.000;2022-08-19T06:29:45;27.80;;;14.43;;
59532;SDS011;45351;53.596;10.000;2022-08-19T06:32:14;30.13;;;16.10;;
59532;SDS011;45351;53.596;10.000;2022-08-19T06:34:42;35.70;;;17.23;;
59532;SDS011;45351;53.596;10.000;2022-08-19T06:37:10;34.30;;;18.07;;
59532;SDS011;45351;53.596;10.000;2022-08-19T06:39:39;34.93;;;16.27;;
59532;SDS011;45351;53.596;10.000;2022-08-19T06:42:08;36.27;;;17.20;;
59532;SDS011;45351;53.596;10.000;2022-08-19T06:44:41;31.47;;;16.00;;
59532;SDS011;45351;53.596;10.000;2022-08-19T06:47:10;35.87;;;16.47;;
59532;SDS011;45351;53.596;10.000;2022-08-19T06:49:38;38.13;;;17.10;;
59532;SDS011;45351;53.596;10.000;2022-08-19T06:52:05;37.83;;;18.60;;
59532;SDS011;45351;53.596;10.000;2022-08-19T06:54:32;32.70;;;18.17;;
59532;SDS011;45351;53.596;10.000;2022-08-19T06:57:01;40.53;;;19.47;;
59532;SDS011;45351;53.596;10.000;2022-08-19T06:59:29;49.27;;;19.47;;
59532;SDS011;45351;53.596;10.000;2022-08-19T07:01:59;38.17;;;19.07;;
59532;SDS011;45351;53.596;10.000;2022-08-19T07:04:30;27.90;;;14.33;;
59532;SDS011;45351;53.596;10.000;2022-08-19T07:06:59;30.93;;;14.90;;
59532;SDS011;45351;53.596;10.000;2022-08-19T07:09:28;37.83;;;18.83;;
59532;SDS011;45351;53.596;10.000;2022-08-19T07:11:55;30.63;;;16.77;;
59532;SDS011;45351;53.596;10.000;2022-08-19T07:14:23;36.47;;;17.43;;
59532;SDS011;45351;53.596;10.000;2022-08-19T07:16:54;32.70;;;16.57;;
59532;SDS011;45351;53.596;10.000;2022-08-19T07:19:23;28.80;;;17.17;;
59532;SDS011;45351;53.596;10.000;2022-08-19T07:21:53;32.80;;;17.87;;
59532;SDS011;45351;53.596;10.000;2022-08-19T07:24:21;31.90;;;16.03;;
59532;SDS011;45351;53.596;10.000;2022-08-19T07:26:51;25.03;;;13.07;;
59532;SDS011;45351;53.596;10.000;2022-08-19T07:29:20;32.47;;;17.70;;
59532;SDS011;45351;53.596;10.000;2022-08-19T07:31:48;24.30;;;14.60;;
59532;SDS011;45351;53.596;10.000;2022-08-19T07:34:18;25.20;;;14.97;;
59532;SDS011;45351;53.596;10.000;2022-08-19T07:36:45;22.90;;;13.23;;
59532;SDS011;45351;53.596;10.000;2022-08-19T07:39:13;20.90;;;11.70;;
59532;SDS011;45351;53.596;10.000;2022-08-19T07:41:42;23.53;;;11.20;;
59532;SDS011;45351;53.596;10.000;2022-08-19T07:44:09;23.77;;;11.07;;
59532;SDS011;45351;53.596;10.000;2022-08-19T07:46:38;19.60;;;11.90;;
59532;SDS011;45351;53.596;10.000;2022-08-19T07:49:08;25.37;;;12.53;;
59532;SDS011;45351;53.596;10.000;2022-08-19T07:51:44;22.17;;;12.40;;
59532;SDS011;45351;53.596;10.000;2022-08-19T07:54:11;27.90;;;12.13;;
59532;SDS011;45351;53.596;10.000;2022-08-19T07:56:38;22.70;;;12.13;;
59532;SDS011;45351;53.596;10.000;2022-08-19T07:59:05;26.10;;;12.60;;
59532;SDS011;45351;53.596;10.000;2022-08-19T08:01:34;26.67;;;13.97;;
59532;SDS011;45351;53.596;10.000;2022-08-19T08:04:01;19.73;;;11.00;;
59532;SDS011;45351;53.596;10.000;2022-08-19T08:06:47;16.40;;;9.53;;
59532;SDS011;45351;53.596;10.000;2022-08-19T08:09:32;17.47;;;10.20;;
59532;SDS011;45351;53.596;10.000;2022-08-19T08:12:03;14.67;;;9.63;;
59532;SDS011;45351;53.596;10.000;2022-08-19T08:14:33;18.87;;;8.97;;
59532;SDS011;45351;53.596;10.000;2022-08-19T08:17:04;13.57;;;8.87;;
59532;SDS011;45351;53.596;10.000;2022-08-19T08:19:32;12.57;;;8.40;;
59532;SDS011;45351;53.596;10.000;2022-08-19T08:22:00;11.43;;;7.97;;
59532;SDS011;45351;53.596;10.000;2022-08-19T08:24:28;12.60;;;8.53;;
59532;SDS011;45351;53.596;10.000;2022-08-19T08:26:57;19.20;;;9.00;;
59532;SDS011;45351;53.596;10.000;2022-08-19T08:29:25;14.17;;;9.10;;
59532;SDS011;45351;53.596;10.000;2022-08-19T08:31:53;17.03;;;10.13;;
59532;SDS011;45351;53.596;10.000;2022-08-19T08:34:20;12.03;;;8.20;;
59532;SDS011;45351;53.596;10.000;2022-08-19T08:36:47;14.00;;;8.10;;
59532;SDS011;45351;53.596;10.000;2022-08-19T08:39:18;12.30;;;7.67;;
59532;SDS011;45351;53.596;10.000;2022-08-19T08:41:49;11.23;;;6.97;;
59532;SDS011;45351;53.596;10.000;2022-08-19T08:44:20;12.23;;;7.17;;
59532;SDS011;45351;53.596;10.000;2022-08-19T08:46:55;15.10;;;8.00;;
59532;SDS011;45351;53.596;10.000;2022-08-19T08:49:27;13.10;;;7.60;;
59532;SDS011;45351;53.596;10.000;2022-08-19T08:52:02;13.70;;;8.57;;
59532;SDS011;45351;53.596;10.000;2022-08-19T08:54:35;14.00;;;8.10;;
59532;SDS011;45351;53.596;10.000;2022-08-19T08:57:07;16.20;;;9.30;;
59532;SDS011;45351;53.596;10.000;2022-08-19T08:59:39;13.50;;;8.40;;
59532;SDS011;45351;53.596;10.000;2022-08-19T09:02:08;13.63;;;7.80;;
59532;SDS011;45351;53.596;10.000;2022-08-19T09:04:35;14.70;;;8.47;;
59532;SDS011;45351;53.596;10.000;2022-08-19T09:09:55;11.50;;;7.43;;
59532;SDS011;45351;53.596;10.000;2022-08-19T09:12:31;17.40;;;9.30;;
59532;SDS011;45351;53.596;10.000;2022-08-19T09:15:06;14.77;;;7.93;;
59532;SDS011;45351;53.596;10.000;2022-08-19T09:17:35;13.73;;;8.10;;
59532;SDS011;45351;53.596;10.000;2022-08-19T09:20:04;16.77;;;8.17;;
59532;SDS011;45351;53.596;10.000;2022-08-19T09:22:40;17.93;;;9.17;;
59532;SDS011;45351;53.596;10.000;2022-08-19T09:25:11;13.87;;;8.10;;
59532;SDS011;45351;53.596;10.000;2022-08-19T09:27:39;11.90;;;7.40;;
59532;SDS011;45351;53.596;10.000;2022-08-19T09:30:08;21.50;;;7.20;;
59532;SDS011;45351;53.596;10.000;2022-08-19T09:32:38;16.87;;;8.37;;
59532;SDS011;45351;53.596;10.000;2022-08-19T09:35:07;18.30;;;8.00;;
59532;SDS011;45351;53.596;10.000;2022-08-19T09:37:34;19.30;;;8.23;;
59532;SDS011;45351;53.596;10.000;2022-08-19T09:40:02;13.80;;;8.07;;
59532;SDS011;45351;53.596;10.000;2022-08-19T09:42:30;17.13;;;7.63;;
59532;SDS011;45351;53.596;10.000;2022-08-19T09:44:59;20.60;;;9.43;;
59532;SDS011;45351;53.596;10.000;2022-08-19T09:47:26;14.83;;;8.17;;
59532;SDS011;45351;53.596;10.000;2022-08-19T09:49:53;16.37;;;8.57;;
59532;SDS011;45351;53.596;10.000;2022-08-19T09:52:20;17.50;;;10.90;;
59532;SDS011;45351;53.596;10.000;2022-08-19T09:54:47;21.27;;;8.80;;
59532;SDS011;45351;53.596;10.000;2022-08-19T09:57:13;19.63;;;10.20;;
59532;SDS011;45351;53.596;10.000;2022-08-19T09:59:44;23.50;;;10.30;;
59532;SDS011;45351;53.596;10.000;2022-08-19T10:02:11;21.17;;;8.43;;
59532;SDS011;45351;53.596;10.000;2022-08-19T10:04:38;18.93;;;8.67;;
59532;SDS011;45351;53.596;10.000;2022-08-19T10:07:22;14.77;;;6.00;;
59532;SDS011;45351;53.596;10.000;2022-08-19T10:09:49;17.03;;;7.67;;
59532;SDS011;45351;53.596;10.000;2022-08-19T10:12:16;10.53;;;6.60;;
59532;SDS011;45351;53.596;10.000;2022-08-19T10:14:44;18.30;;;10.63;;
59532;SDS011;45351;53.596;10.000;2022-08-19T10:17:12;8.60;;;4.73;;
59532;SDS011;45351;53.596;10.000;2022-08-19T10:19:39;24.47;;;7.50;;
59532;SDS011;45351;53.596;10.000;2022-08-19T10:22:06;12.13;;;6.63;;
59532;SDS011;45351;53.596;10.000;2022-08-19T10:24:33;18.50;;;11.00;;
59532;SDS011;45351;53.596;10.000;2022-08-19T10:27:01;21.83;;;13.00;;
59532;SDS011;45351;53.596;10.000;2022-08-19T10:29:28;21.73;;;11.57;;
59532;SDS011;45351;53.596;10.000;2022-08-19T10:31:58;11.57;;;5.27;;
59532;SDS011;45351;53.596;10.000;2022-08-19T10:34:25;15.10;;;6.73;;
59532;SDS011;45351;53.596;10.000;2022-08-19T10:36:54;19.80;;;11.03;;
59532;SDS011;45351;53.596;10.000;2022-08-19T10:39:22;28.77;;;15.20;;
59532;SDS011;45351;53.596;10.000;2022-08-19T10:41:49;25.47;;;14.03;;
59532;SDS011;45351;53.596;10.000;2022-08-19T10:44:16;27.20;;;16.10;;
59532;SDS011;45351;53.596;10.000;2022-08-19T10:46:43;23.67;;;13.80;;
59532;SDS011;45351;53.596;10.000;2022-08-19T10:49:13;24.97;;;13.77;;
59532;SDS011;45351;53.596;10.000;2022-08-19T10:51:40;23.13;;;13.70;;
59532;SDS011;45351;53.596;10.000;2022-08-19T10:54:25;23.93;;;13.50;;
59532;SDS011;45351;53.596;10.000;2022-08-19T10:57:08;11.60;;;7.60;;
59532;SDS011;45351;53.596;10.000;2022-08-19T10:59:35;24.77;;;13.27;;
59532;SDS011;45351;53.596;10.000;2022-08-19T11:02:03;13.70;;;7.70;;
59532;SDS011;45351;53.596;10.000;2022-08-19T11:04:33;11.40;;;7.63;;
59532;SDS011;45351;53.596;10.000;2022-08-19T11:07:00;12.60;;;6.60;;
59532;SDS011;45351;53.596;10.000;2022-08-19T11:09:27;16.43;;;6.33;;
59532;SDS011;45351;53.596;10.000;2022-08-19T11:11:54;25.30;;;13.57;;
59532;SDS011;45351;53.596;10.000;2022-08-19T11:14:21;22.47;;;13.43;;
59532;SDS011;45351;53.596;10.000;2022-08-19T11:16:50;10.07;;;5.80;;
59532;SDS011;45351;53.596;10.000;2022-08-19T11:19:18;20.60;;;11.60;;
59532;SDS011;45351;53.596;10.000;2022-08-19T11:21:47;17.80;;;11.03;;
59532;SDS011;45351;53.596;10.000;2022-08-19T11:24:15;22.37;;;11.93;;
59532;SDS011;45351;53.596;10.000;2022-08-19T11:26:45;25.10;;;12.37;;
59532;SDS011;45351;53.596;10.000;2022-08-19T11:29:14;24.10;;;12.90;;
59532;SDS011;45351;53.596;10.000;2022-08-19T11:31:44;13.93;;;9.27;;
59532;SDS011;45351;53.596;10.000;2022-08-19T11:34:13;26.17;;;12.10;;
59532;SDS011;45351;53.596;10.000;2022-08-19T11:36:42;19.93;;;11.67;;
59532;SDS011;45351;53.596;10.000;2022-08-19T11:39:14;21.83;;;13.27;;
59532;SDS011;45351;53.596;10.000;2022-08-19T11:41:42;11.40;;;7.73;;
59532;SDS011;45351;53.596;10.000;2022-08-19T11:44:09;21.73;;;12.23;;
59532;SDS011;45351;53.596;10.000;2022-08-19T11:46:39;9.60;;;6.43;;
59532;SDS011;45351;53.596;10.000;2022-08-19T11:49:10;22.40;;;11.93;;
59532;SDS011;45351;53.596;10.000;2022-08-19T11:51:37;8.20;;;6.13;;
59532;SDS011;45351;53.596;10.000;2022-08-19T11:54:05;18.87;;;12.47;;
59532;SDS011;45351;53.596;10.000;2022-08-19T11:56:33;23.93;;;9.33;;
59532;SDS011;45351;53.596;10.000;2022-08-19T11:59:00;20.60;;;12.53;;
59532;SDS011;45351;53.596;10.000;2022-08-19T12:01:28;17.17;;;11.70;;
59532;SDS011;45351;53.596;10.000;2022-08-19T12:03:55;18.10;;;11.50;;
59532;SDS011;45351;53.596;10.000;2022-08-19T12:06:25;23.83;;;14.00;;
59532;SDS011;45351;53.596;10.000;2022-08-19T12:08:54;21.83;;;13.60;;
59532;SDS011;45351;53.596;10.000;2022-08-19T12:11:21;18.27;;;11.03;;
59532;SDS011;45351;53.596;10.000;2022-08-19T12:13:51;17.80;;;10.87;;
59532;SDS011;45351;53.596;10.000;2022-08-19T12:16:19;25.37;;;11.03;;
59532;SDS011;45351;53.596;10.000;2022-08-19T12:18:47;21.10;;;12.47;;
59532;SDS011;45351;53.596;10.000;2022-08-19T12:21:16;11.70;;;7.60;;
59532;SDS011;45351;53.596;10.000;2022-08-19T12:23:46;8.60;;;6.43;;
59532;SDS011;45351;53.596;10.000;2022-08-19T12:26:14;11.33;;;6.70;;
59532;SDS011;45351;53.596;10.000;2022-08-19T12:28:41;12.83;;;8.80;;
59532;SDS011;45351;53.596;10.000;2022-08-19T12:31:10;8.33;;;6.17;;
59532;SDS011;45351;53.596;10.000;2022-08-19T12:33:37;13.73;;;8.40;;
59532;SDS011;45351;53.596;10.000;2022-08-19T12:36:06;16.23;;;11.27;;
59532;SDS011;45351;53.596;10.000;2022-08-19T12:38:35;12.90;;;8.53;;
59532;SDS011;45351;53.596;10.000;2022-08-19T12:41:02;18.40;;;10.83;;
59532;SDS011;45351;53.596;10.000;2022-08-19T12:43:32;16.03;;;11.10;;
59532;SDS011;45351;53.596;10.000;2022-08-19T12:45:59;12.40;;;9.80;;
59532;SDS011;45351;53.596;10.000;2022-08-19T12:48:28;12.37;;;7.70;;
59532;SDS011;45351;53.596;10.000;2022-08-19T12:50:54;15.90;;;10.77;;
59532;SDS011;45351;53.596;10.000;2022-08-19T12:53:22;17.80;;;10.60;;
59532;SDS011;45351;53.596;10.000;2022-08-19T12:55:54;9.37;;;6.10;;
59532;SDS011;45351;53.596;10.000;2022-08-19T12:58:22;7.43;;;5.80;;
59532;SDS011;45351;53.596;10.000;2022-08-19T13:00:49;15.03;;;11.30;;
59532;SDS011;45351;53.596;10.000;2022-08-19T13:03:16;7.60;;;5.77;;
59532;SDS011;45351;53.596;10.000;2022-08-19T13:05:44;12.83;;;9.50;;
59532;SDS011;45351;53.596;10.000;2022-08-19T13:08:11;22.00;;;10.17;;
59532;SDS011;45351;53.596;10.000;2022-08-19T13:10:38;12.73;;;5.50;;
59532;SDS011;45351;53.596;10.000;2022-08-19T13:13:06;12.80;;;9.20;;
59532;SDS011;45351;53.596;10.000;2022-08-19T13:15:35;5.57;;;4.90;;
59532;SDS011;45351;53.596;10.000;2022-08-19T13:18:04;14.10;;;9.27;;
59532;SDS011;45351;53.596;10.000;2022-08-19T13:20:32;13.33;;;8.87;;
59532;SDS011;45351;53.596;10.000;2022-08-19T13:23:00;15.07;;;8.67;;
59532;SDS011;45351;53.596;10.000;2022-08-19T13:25:27;6.60;;;5.90;;
59532;SDS011;45351;53.596;10.000;2022-08-19T13:27:55;11.20;;;9.00;;
59532;SDS011;45351;53.596;10.000;2022-08-19T13:30:21;13.93;;;9.17;;
59532;SDS011;45351;53.596;10.000;2022-08-19T13:33:06;10.03;;;7.33;;
59532;SDS011;45351;53.596;10.000;2022-08-19T13:35:40;15.60;;;9.43;;
59532;SDS011;45351;53.596;10.000;2022-08-19T13:38:10;6.57;;;5.40;;
59532;SDS011;45351;53.596;10.000;2022-08-19T13:40:38;7.23;;;5.80;;
59532;SDS011;45351;53.596;10.000;2022-08-19T13:43:06;10.93;;;8.10;;
59532;SDS011;45351;53.596;10.000;2022-08-19T13:45:35;14.80;;;10.77;;
59532;SDS011;45351;53.596;10.000;2022-08-19T13:48:03;17.03;;;10.90;;
59532;SDS011;45351;53.596;10.000;2022-08-19T13:50:33;14.27;;;10.27;;
59532;SDS011;45351;53.596;10.000;2022-08-19T13:53:04;12.50;;;7.77;;
59532;SDS011;45351;53.596;10.000;2022-08-19T13:55:32;11.40;;;5.73;;
59532;SDS011;45351;53.596;10.000;2022-08-19T13:57:59;13.60;;;10.10;;
59532;SDS011;45351;53.596;10.000;2022-08-19T14:00:28;16.33;;;10.00;;
59532;SDS011;45351;53.596;10.000;2022-08-19T14:02:57;22.07;;;15.10;;
59532;SDS011;45351;53.596;10.000;2022-08-19T14:05:25;15.07;;;11.53;;
59532;SDS011;45351;53.596;10.000;2022-08-19T14:07:53;10.40;;;7.50;;
59532;SDS011;45351;53.596;10.000;2022-08-19T14:10:21;13.23;;;8.50;;
59532;SDS011;45351;53.596;10.000;2022-08-19T14:12:51;13.47;;;10.20;;
59532;SDS011;45351;53.596;10.000;2022-08-19T14:15:21;17.93;;;10.30;;
59532;SDS011;45351;53.596;10.000;2022-08-19T14:17:49;15.00;;;10.30;;
59532;SDS011;45351;53.596;10.000;2022-08-19T14:20:16;15.83;;;10.50;;
59532;SDS011;45351;53.596;10.000;2022-08-19T14:22:44;13.60;;;10.80;;
59532;SDS011;45351;53.596;10.000;2022-08-19T14:25:14;13.17;;;10.23;;
59532;SDS011;45351;53.596;10.000;2022-08-19T14:27:44;16.70;;;11.83;;